sensor_id;sensor_type;location;lat;lon;timestamp;P1;durP1;ratioP1;P2;durP2;ratioP2
14686;SDS011;7431;49.440;11.084;2023-07-30T00:00:58;5.88;;;2.05;;
14686;SDS011;7431;49.440;11.084;2023-07-30T00:03:24;2.38;;;2.05;;
14686;SDS011;7431;49.440;11.084;2023-07-30T00:05:54;3.22;;;1.85;;
14686;SDS011;7431;49.440;11.084;2023-07-30T00:08:20;2.40;;;1.77;;
14686;SDS011;7431;49.440;11.084;2023-07-30T00:10:46;2.25;;;1.90;;
14686;SDS011;7431;49.440;11.084;2023-07-30T00:13:12;2.22;;;2.00;;
14686;SDS011;7431;49.440;11.084;2023-07-30T00:15:38;1.63;;;1.53;;
14686;SDS011;7431;49.440;11.084;2023-07-30T00:18:04;2.05;;;1.92;;
14686;SDS011;7431;49.440;11.084;2023-07-30T00:20:30;1.90;;;1.80;;
14686;SDS011;7431;49.440;11.084;2023-07-30T00:22:56;1.95;;;1.80;;
14686;SDS011;7431;49.440;11.084;2023-07-30T00:25:21;2.80;;;2.20;;
14686;SDS011;7431;49.440;11.084;2023-07-30T00:27:47;2.63;;;2.42;;
14686;SDS011;7431;49.440;11.084;2023-07-30T00:30:13;2.17;;;1.98;;
14686;SDS011;7431;49.440;11.084;2023-07-30T00:32:40;2.42;;;2.22;;
14686;SDS011;7431;49.440;11.084;2023-07-30T00:35:08;2.70;;;1.90;;
14686;SDS011;7431;49.440;11.084;2023-07-30T00:37:34;2.03;;;1.80;;
14686;SDS011;7431;49.440;11.084;2023-07-30T00:40:01;2.50;;;2.25;;
14686;SDS011;7431;49.440;11.084;2023-07-30T00:42:27;2.15;;;1.95;;
14686;SDS011;7431;49.440;11.084;2023-07-30T00:44:53;3.08;;;2.28;;
14686;SDS011;7431;49.440;11.084;2023-07-30T00:47:20;3.38;;;2.20;;
14686;SDS011;7431;49.440;11.084;2023-07-30T00:49:46;2.85;;;2.10;;
14686;SDS011;7431;49.440;11.084;2023-07-30T00:52:12;3.03;;;1.88;;
14686;SDS011;7431;49.440;11.084;2023-07-30T00:54:38;4.53;;;2.22;;
14686;SDS011;7431;49.440;11.084;2023-07-30T00:57:04;2.20;;;1.83;;
14686;SDS011;7431;49.440;11.084;2023-07-30T00:59:32;2.88;;;2.03;;
14686;SDS011;7431;49.440;11.084;2023-07-30T01:01:58;2.13;;;1.92;;
14686;SDS011;7431;49.440;11.084;2023-07-30T01:04:25;2.28;;;2.00;;
14686;SDS011;7431;49.440;11.084;2023-07-30T01:06:51;2.28;;;2.08;;
14686;SDS011;7431;49.440;11.084;2023-07-30T01:09:17;2.10;;;1.90;;
14686;SDS011;7431;49.440;11.084;2023-07-30T01:11:43;2.05;;;1.75;;
14686;SDS011;7431;49.440;11.084;2023-07-30T01:14:09;2.20;;;2.00;;
14686;SDS011;7431;49.440;11.084;2023-07-30T01:16:35;2.33;;;2.13;;
14686;SDS011;7431;49.440;11.084;2023-07-30T01:19:01;2.17;;;1.98;;
14686;SDS011;7431;49.440;11.084;2023-07-30T01:21:33;4.15;;;2.22;;
14686;SDS011;7431;49.440;11.084;2023-07-30T01:23:59;4.10;;;2.42;;
14686;SDS011;7431;49.440;11.084;2023-07-30T01:26:27;4.22;;;2.50;;
14686;SDS011;7431;49.440;11.084;2023-07-30T01:28:54;3.15;;;2.40;;
14686;SDS011;7431;49.440;11.084;2023-07-30T01:31:20;3.53;;;2.50;;
14686;SDS011;7431;49.440;11.084;2023-07-30T01:33:48;3.88;;;2.00;;
14686;SDS011;7431;49.440;11.084;2023-07-30T01:36:16;3.60;;;2.47;;
14686;SDS011;7431;49.440;11.084;2023-07-30T01:38:42;4.07;;;2.53;;
14686;SDS011;7431;49.440;11.084;2023-07-30T01:41:08;3.05;;;2.40;;
14686;SDS011;7431;49.440;11.084;2023-07-30T01:43:35;3.15;;;2.17;;
14686;SDS011;7431;49.440;11.084;2023-07-30T01:46:01;3.53;;;2.33;;
14686;SDS011;7431;49.440;11.084;2023-07-30T01:48:27;3.28;;;2.97;;
14686;SDS011;7431;49.440;11.084;2023-07-30T01:50:53;3.08;;;2.72;;
14686;SDS011;7431;49.440;11.084;2023-07-30T01:53:19;3.28;;;2.92;;
14686;SDS011;7431;49.440;11.084;2023-07-30T01:55:44;3.65;;;2.85;;
14686;SDS011;7431;49.440;11.084;2023-07-30T01:58:13;2.80;;;2.50;;
14686;SDS011;7431;49.440;11.084;2023-07-30T02:00:39;3.03;;;2.63;;
14686;SDS011;7431;49.440;11.084;2023-07-30T02:03:06;4.15;;;2.60;;
14686;SDS011;7431;49.440;11.084;2023-07-30T02:05:32;2.75;;;2.30;;
14686;SDS011;7431;49.440;11.084;2023-07-30T02:07:58;2.38;;;2.17;;
14686;SDS011;7431;49.440;11.084;2023-07-30T02:10:24;3.33;;;2.60;;
14686;SDS011;7431;49.440;11.084;2023-07-30T02:12:50;3.22;;;2.83;;
14686;SDS011;7431;49.440;11.084;2023-07-30T02:15:16;3.22;;;2.60;;
14686;SDS011;7431;49.440;11.084;2023-07-30T02:17:42;2.63;;;2.40;;
14686;SDS011;7431;49.440;11.084;2023-07-30T02:20:09;2.63;;;2.38;;
14686;SDS011;7431;49.440;11.084;2023-07-30T02:22:35;2.17;;;1.98;;
14686;SDS011;7431;49.440;11.084;2023-07-30T02:25:01;3.40;;;2.50;;
14686;SDS011;7431;49.440;11.084;2023-07-30T02:27:27;3.70;;;2.47;;
14686;SDS011;7431;49.440;11.084;2023-07-30T02:29:53;3.45;;;2.90;;
14686;SDS011;7431;49.440;11.084;2023-07-30T02:32:19;3.63;;;2.90;;
14686;SDS011;7431;49.440;11.084;2023-07-30T02:34:45;3.33;;;2.90;;
14686;SDS011;7431;49.440;11.084;2023-07-30T02:37:10;3.05;;;2.80;;
14686;SDS011;7431;49.440;11.084;2023-07-30T02:39:36;3.22;;;2.92;;
14686;SDS011;7431;49.440;11.084;2023-07-30T02:42:02;4.22;;;2.70;;
14686;SDS011;7431;49.440;11.084;2023-07-30T02:44:28;4.45;;;2.67;;
14686;SDS011;7431;49.440;11.084;2023-07-30T02:46:54;2.90;;;2.60;;
14686;SDS011;7431;49.440;11.084;2023-07-30T02:49:20;3.20;;;2.85;;
14686;SDS011;7431;49.440;11.084;2023-07-30T02:51:46;3.15;;;2.80;;
14686;SDS011;7431;49.440;11.084;2023-07-30T02:54:14;2.67;;;2.38;;
14686;SDS011;7431;49.440;11.084;2023-07-30T02:56:41;5.93;;;2.80;;
14686;SDS011;7431;49.440;11.084;2023-07-30T02:59:07;4.18;;;2.72;;
14686;SDS011;7431;49.440;11.084;2023-07-30T03:01:33;3.25;;;2.95;;
14686;SDS011;7431;49.440;11.084;2023-07-30T03:03:59;2.88;;;2.58;;
14686;SDS011;7431;49.440;11.084;2023-07-30T03:06:25;3.03;;;2.60;;
14686;SDS011;7431;49.440;11.084;2023-07-30T03:08:51;6.70;;;2.72;;
14686;SDS011;7431;49.440;11.084;2023-07-30T03:11:17;3.03;;;2.55;;
14686;SDS011;7431;49.440;11.084;2023-07-30T03:13:42;2.60;;;2.30;;
14686;SDS011;7431;49.440;11.084;2023-07-30T03:16:09;4.47;;;2.80;;
14686;SDS011;7431;49.440;11.084;2023-07-30T03:18:34;3.10;;;2.80;;
14686;SDS011;7431;49.440;11.084;2023-07-30T03:21:00;3.13;;;2.83;;
14686;SDS011;7431;49.440;11.084;2023-07-30T03:23:27;3.28;;;2.90;;
14686;SDS011;7431;49.440;11.084;2023-07-30T03:25:53;5.30;;;2.80;;
14686;SDS011;7431;49.440;11.084;2023-07-30T03:28:19;2.70;;;2.35;;
14686;SDS011;7431;49.440;11.084;2023-07-30T03:30:45;2.92;;;2.63;;
14686;SDS011;7431;49.440;11.084;2023-07-30T03:33:11;3.47;;;2.95;;
14686;SDS011;7431;49.440;11.084;2023-07-30T03:35:37;2.58;;;2.38;;
14686;SDS011;7431;49.440;11.084;2023-07-30T03:38:03;3.60;;;2.70;;
14686;SDS011;7431;49.440;11.084;2023-07-30T03:40:29;3.33;;;2.90;;
14686;SDS011;7431;49.440;11.084;2023-07-30T03:42:55;2.75;;;2.55;;
14686;SDS011;7431;49.440;11.084;2023-07-30T03:45:21;2.60;;;2.40;;
14686;SDS011;7431;49.440;11.084;2023-07-30T03:47:47;2.97;;;2.67;;
14686;SDS011;7431;49.440;11.084;2023-07-30T03:50:13;2.72;;;2.53;;
14686;SDS011;7431;49.440;11.084;2023-07-30T03:52:39;4.68;;;2.80;;
14686;SDS011;7431;49.440;11.084;2023-07-30T03:55:05;4.40;;;2.80;;
14686;SDS011;7431;49.440;11.084;2023-07-30T03:57:31;5.78;;;2.90;;
14686;SDS011;7431;49.440;11.084;2023-07-30T03:59:57;3.53;;;3.13;;
14686;SDS011;7431;49.440;11.084;2023-07-30T04:02:23;3.50;;;2.97;;
14686;SDS011;7431;49.440;11.084;2023-07-30T04:04:49;3.33;;;2.63;;
14686;SDS011;7431;49.440;11.084;2023-07-30T04:07:15;3.15;;;2.85;;
14686;SDS011;7431;49.440;11.084;2023-07-30T04:09:41;8.43;;;3.10;;
14686;SDS011;7431;49.440;11.084;2023-07-30T04:12:07;5.20;;;3.13;;
14686;SDS011;7431;49.440;11.084;2023-07-30T04:14:33;2.92;;;2.67;;
14686;SDS011;7431;49.440;11.084;2023-07-30T04:17:05;3.97;;;3.20;;
14686;SDS011;7431;49.440;11.084;2023-07-30T04:19:31;3.45;;;2.70;;
14686;SDS011;7431;49.440;11.084;2023-07-30T04:21:57;4.45;;;3.05;;
14686;SDS011;7431;49.440;11.084;2023-07-30T04:24:23;3.75;;;3.10;;
14686;SDS011;7431;49.440;11.084;2023-07-30T04:26:51;4.35;;;2.97;;
14686;SDS011;7431;49.440;11.084;2023-07-30T04:29:16;3.38;;;2.95;;
14686;SDS011;7431;49.440;11.084;2023-07-30T04:31:43;3.23;;;2.93;;
14686;SDS011;7431;49.440;11.084;2023-07-30T04:34:08;4.20;;;3.00;;
14686;SDS011;7431;49.440;11.084;2023-07-30T04:36:34;3.72;;;2.95;;
14686;SDS011;7431;49.440;11.084;2023-07-30T04:39:00;3.58;;;2.80;;
14686;SDS011;7431;49.440;11.084;2023-07-30T04:41:26;3.60;;;3.08;;
14686;SDS011;7431;49.440;11.084;2023-07-30T04:43:52;4.57;;;2.72;;
14686;SDS011;7431;49.440;11.084;2023-07-30T04:46:18;4.05;;;2.72;;
14686;SDS011;7431;49.440;11.084;2023-07-30T04:48:44;3.60;;;2.90;;
14686;SDS011;7431;49.440;11.084;2023-07-30T04:51:10;3.20;;;2.90;;
14686;SDS011;7431;49.440;11.084;2023-07-30T04:53:36;3.20;;;2.90;;
14686;SDS011;7431;49.440;11.084;2023-07-30T04:56:02;3.60;;;3.08;;
14686;SDS011;7431;49.440;11.084;2023-07-30T04:58:28;4.07;;;2.92;;
14686;SDS011;7431;49.440;11.084;2023-07-30T05:00:55;3.85;;;2.85;;
14686;SDS011;7431;49.440;11.084;2023-07-30T05:03:21;4.97;;;2.47;;
14686;SDS011;7431;49.440;11.084;2023-07-30T05:05:46;2.85;;;2.33;;
14686;SDS011;7431;49.440;11.084;2023-07-30T05:08:12;2.45;;;2.25;;
14686;SDS011;7431;49.440;11.084;2023-07-30T05:10:38;4.90;;;2.47;;
14686;SDS011;7431;49.440;11.084;2023-07-30T05:13:04;2.63;;;2.40;;
14686;SDS011;7431;49.440;11.084;2023-07-30T05:15:31;2.83;;;2.50;;
14686;SDS011;7431;49.440;11.084;2023-07-30T05:17:57;3.70;;;2.75;;
14686;SDS011;7431;49.440;11.084;2023-07-30T05:20:23;2.70;;;2.40;;
14686;SDS011;7431;49.440;11.084;2023-07-30T05:22:48;2.67;;;2.42;;
14686;SDS011;7431;49.440;11.084;2023-07-30T05:25:14;3.25;;;2.63;;
14686;SDS011;7431;49.440;11.084;2023-07-30T05:27:40;2.85;;;2.65;;
14686;SDS011;7431;49.440;11.084;2023-07-30T05:30:06;2.95;;;2.60;;
14686;SDS011;7431;49.440;11.084;2023-07-30T05:32:33;3.67;;;2.55;;
14686;SDS011;7431;49.440;11.084;2023-07-30T05:34:58;2.50;;;2.30;;
14686;SDS011;7431;49.440;11.084;2023-07-30T05:37:24;3.70;;;2.65;;
14686;SDS011;7431;49.440;11.084;2023-07-30T05:39:50;3.75;;;2.50;;
14686;SDS011;7431;49.440;11.084;2023-07-30T05:42:16;3.28;;;2.92;;
14686;SDS011;7431;49.440;11.084;2023-07-30T05:44:42;3.20;;;2.58;;
14686;SDS011;7431;49.440;11.084;2023-07-30T05:47:08;4.65;;;2.97;;
14686;SDS011;7431;49.440;11.084;2023-07-30T05:49:34;2.90;;;2.60;;
14686;SDS011;7431;49.440;11.084;2023-07-30T05:52:00;2.85;;;2.65;;
14686;SDS011;7431;49.440;11.084;2023-07-30T05:54:26;2.45;;;2.25;;
14686;SDS011;7431;49.440;11.084;2023-07-30T05:56:52;3.35;;;2.70;;
14686;SDS011;7431;49.440;11.084;2023-07-30T05:59:19;2.55;;;2.35;;
14686;SDS011;7431;49.440;11.084;2023-07-30T06:01:45;2.95;;;2.05;;
14686;SDS011;7431;49.440;11.084;2023-07-30T06:04:11;2.33;;;2.13;;
14686;SDS011;7431;49.440;11.084;2023-07-30T06:06:37;3.25;;;2.65;;
14686;SDS011;7431;49.440;11.084;2023-07-30T06:09:03;3.60;;;2.10;;
14686;SDS011;7431;49.440;11.084;2023-07-30T06:11:29;2.33;;;2.00;;
14686;SDS011;7431;49.440;11.084;2023-07-30T06:13:55;2.30;;;2.10;;
14686;SDS011;7431;49.440;11.084;2023-07-30T06:16:21;4.22;;;2.08;;
14686;SDS011;7431;49.440;11.084;2023-07-30T06:18:47;2.20;;;2.00;;
14686;SDS011;7431;49.440;11.084;2023-07-30T06:21:13;1.90;;;1.80;;
14686;SDS011;7431;49.440;11.084;2023-07-30T06:23:39;1.60;;;1.50;;
14686;SDS011;7431;49.440;11.084;2023-07-30T06:26:05;3.38;;;2.00;;
14686;SDS011;7431;49.440;11.084;2023-07-30T06:28:31;2.00;;;1.90;;
14686;SDS011;7431;49.440;11.084;2023-07-30T06:31:01;1.73;;;1.63;;
14686;SDS011;7431;49.440;11.084;2023-07-30T06:33:27;2.30;;;1.73;;
14686;SDS011;7431;49.440;11.084;2023-07-30T06:35:53;1.73;;;1.63;;
14686;SDS011;7431;49.440;11.084;2023-07-30T06:38:19;1.60;;;1.50;;
14686;SDS011;7431;49.440;11.084;2023-07-30T06:40:45;1.60;;;1.48;;
14686;SDS011;7431;49.440;11.084;2023-07-30T06:43:11;2.13;;;1.85;;
14686;SDS011;7431;49.440;11.084;2023-07-30T06:45:37;1.65;;;1.55;;
14686;SDS011;7431;49.440;11.084;2023-07-30T06:48:03;3.40;;;1.80;;
14686;SDS011;7431;49.440;11.084;2023-07-30T06:50:29;1.80;;;1.70;;
14686;SDS011;7431;49.440;11.084;2023-07-30T06:52:55;2.42;;;1.88;;
14686;SDS011;7431;49.440;11.084;2023-07-30T06:55:21;2.83;;;1.98;;
14686;SDS011;7431;49.440;11.084;2023-07-30T06:57:47;1.75;;;1.60;;
14686;SDS011;7431;49.440;11.084;2023-07-30T07:00:13;3.08;;;2.00;;
14686;SDS011;7431;49.440;11.084;2023-07-30T07:02:46;1.92;;;1.58;;
14686;SDS011;7431;49.440;11.084;2023-07-30T07:05:12;2.00;;;1.70;;
14686;SDS011;7431;49.440;11.084;2023-07-30T07:07:38;2.08;;;1.55;;
14686;SDS011;7431;49.440;11.084;2023-07-30T07:10:04;1.83;;;1.70;;
14686;SDS011;7431;49.440;11.084;2023-07-30T07:12:30;1.88;;;1.70;;
14686;SDS011;7431;49.440;11.084;2023-07-30T07:14:56;2.08;;;1.90;;
14686;SDS011;7431;49.440;11.084;2023-07-30T07:17:23;1.48;;;1.38;;
14686;SDS011;7431;49.440;11.084;2023-07-30T07:19:49;1.60;;;1.50;;
14686;SDS011;7431;49.440;11.084;2023-07-30T07:22:15;2.42;;;1.90;;
14686;SDS011;7431;49.440;11.084;2023-07-30T07:24:42;3.33;;;1.80;;
14686;SDS011;7431;49.440;11.084;2023-07-30T07:27:08;1.63;;;1.52;;
14686;SDS011;7431;49.440;11.084;2023-07-30T07:29:34;1.60;;;1.50;;
14686;SDS011;7431;49.440;11.084;2023-07-30T07:32:00;1.45;;;1.35;;
14686;SDS011;7431;49.440;11.084;2023-07-30T07:34:26;1.95;;;1.80;;
14686;SDS011;7431;49.440;11.084;2023-07-30T07:36:52;1.85;;;1.75;;
14686;SDS011;7431;49.440;11.084;2023-07-30T07:39:18;2.20;;;1.95;;
14686;SDS011;7431;49.440;11.084;2023-07-30T07:41:44;1.95;;;1.65;;
14686;SDS011;7431;49.440;11.084;2023-07-30T07:44:11;2.20;;;1.88;;
14686;SDS011;7431;49.440;11.084;2023-07-30T07:46:36;1.75;;;1.63;;
14686;SDS011;7431;49.440;11.084;2023-07-30T07:49:02;1.50;;;1.40;;
14686;SDS011;7431;49.440;11.084;2023-07-30T07:51:28;1.67;;;1.58;;
14686;SDS011;7431;49.440;11.084;2023-07-30T07:53:54;1.98;;;1.60;;
14686;SDS011;7431;49.440;11.084;2023-07-30T07:56:21;1.73;;;1.63;;
14686;SDS011;7431;49.440;11.084;2023-07-30T07:58:47;2.38;;;1.55;;
14686;SDS011;7431;49.440;11.084;2023-07-30T08:01:13;1.60;;;1.40;;
14686;SDS011;7431;49.440;11.084;2023-07-30T08:03:39;1.60;;;1.50;;
14686;SDS011;7431;49.440;11.084;2023-07-30T08:06:05;1.58;;;1.48;;
14686;SDS011;7431;49.440;11.084;2023-07-30T08:08:31;3.03;;;1.60;;
14686;SDS011;7431;49.440;11.084;2023-07-30T08:10:57;1.55;;;1.42;;
14686;SDS011;7431;49.440;11.084;2023-07-30T08:13:23;1.88;;;1.70;;
14686;SDS011;7431;49.440;11.084;2023-07-30T08:15:49;1.92;;;1.73;;
14686;SDS011;7431;49.440;11.084;2023-07-30T08:18:15;1.90;;;1.73;;
14686;SDS011;7431;49.440;11.084;2023-07-30T08:20:41;1.63;;;1.52;;
14686;SDS011;7431;49.440;11.084;2023-07-30T08:23:07;1.80;;;1.70;;
14686;SDS011;7431;49.440;11.084;2023-07-30T08:25:33;1.70;;;1.60;;
14686;SDS011;7431;49.440;11.084;2023-07-30T08:27:59;1.88;;;1.77;;
14686;SDS011;7431;49.440;11.084;2023-07-30T08:30:25;1.73;;;1.55;;
14686;SDS011;7431;49.440;11.084;2023-07-30T08:32:51;1.75;;;1.63;;
14686;SDS011;7431;49.440;11.084;2023-07-30T08:35:17;3.85;;;2.67;;
14686;SDS011;7431;49.440;11.084;2023-07-30T08:37:43;2.05;;;1.80;;
14686;SDS011;7431;49.440;11.084;2023-07-30T08:40:09;2.25;;;1.70;;
14686;SDS011;7431;49.440;11.084;2023-07-30T08:42:36;2.05;;;1.50;;
14686;SDS011;7431;49.440;11.084;2023-07-30T08:45:03;1.63;;;1.50;;
14686;SDS011;7431;49.440;11.084;2023-07-30T08:47:32;1.75;;;1.65;;
14686;SDS011;7431;49.440;11.084;2023-07-30T08:49:58;1.77;;;1.67;;
14686;SDS011;7431;49.440;11.084;2023-07-30T08:52:24;1.52;;;1.42;;
14686;SDS011;7431;49.440;11.084;2023-07-30T08:54:50;1.70;;;1.60;;
14686;SDS011;7431;49.440;11.084;2023-07-30T08:57:17;2.20;;;2.00;;
14686;SDS011;7431;49.440;11.084;2023-07-30T08:59:47;1.88;;;1.77;;
14686;SDS011;7431;49.440;11.084;2023-07-30T09:02:21;1.67;;;1.58;;
14686;SDS011;7431;49.440;11.084;2023-07-30T09:04:49;2.00;;;1.77;;
14686;SDS011;7431;49.440;11.084;2023-07-30T09:07:17;1.75;;;1.65;;
14686;SDS011;7431;49.440;11.084;2023-07-30T09:09:43;2.05;;;1.85;;
14686;SDS011;7431;49.440;11.084;2023-07-30T09:12:13;2.08;;;1.70;;
14686;SDS011;7431;49.440;11.084;2023-07-30T09:14:39;1.98;;;1.60;;
14686;SDS011;7431;49.440;11.084;2023-07-30T09:17:05;2.05;;;1.60;;
14686;SDS011;7431;49.440;11.084;2023-07-30T09:19:34;1.80;;;1.70;;
14686;SDS011;7431;49.440;11.084;2023-07-30T09:22:04;1.60;;;1.50;;
14686;SDS011;7431;49.440;11.084;2023-07-30T09:24:30;1.40;;;1.30;;
14686;SDS011;7431;49.440;11.084;2023-07-30T09:26:57;1.60;;;1.25;;
14686;SDS011;7431;49.440;11.084;2023-07-30T09:29:26;1.58;;;1.48;;
14686;SDS011;7431;49.440;11.084;2023-07-30T09:31:53;1.55;;;1.45;;
14686;SDS011;7431;49.440;11.084;2023-07-30T09:34:19;2.10;;;1.33;;
14686;SDS011;7431;49.440;11.084;2023-07-30T09:36:46;2.17;;;1.60;;
14686;SDS011;7431;49.440;11.084;2023-07-30T09:39:16;1.40;;;1.30;;
14686;SDS011;7431;49.440;11.084;2023-07-30T09:41:43;1.52;;;1.42;;
14686;SDS011;7431;49.440;11.084;2023-07-30T09:44:09;1.60;;;1.50;;
14686;SDS011;7431;49.440;11.084;2023-07-30T09:46:48;1.67;;;1.50;;
14686;SDS011;7431;49.440;11.084;2023-07-30T09:49:15;1.88;;;1.50;;
14686;SDS011;7431;49.440;11.084;2023-07-30T09:51:41;1.58;;;1.48;;
14686;SDS011;7431;49.440;11.084;2023-07-30T09:54:07;1.40;;;1.30;;
14686;SDS011;7431;49.440;11.084;2023-07-30T09:56:37;2.05;;;1.50;;
14686;SDS011;7431;49.440;11.084;2023-07-30T09:59:04;1.27;;;1.05;;
14686;SDS011;7431;49.440;11.084;2023-07-30T10:01:30;2.22;;;1.90;;
14686;SDS011;7431;49.440;11.084;2023-07-30T10:03:57;1.50;;;1.40;;
14686;SDS011;7431;49.440;11.084;2023-07-30T10:06:23;1.45;;;1.35;;
14686;SDS011;7431;49.440;11.084;2023-07-30T10:08:50;1.42;;;1.33;;
14686;SDS011;7431;49.440;11.084;2023-07-30T10:11:18;1.80;;;1.38;;
14686;SDS011;7431;49.440;11.084;2023-07-30T10:13:45;1.33;;;1.25;;
14686;SDS011;7431;49.440;11.084;2023-07-30T10:16:11;1.48;;;1.38;;
14686;SDS011;7431;49.440;11.084;2023-07-30T10:18:41;1.40;;;1.20;;
14686;SDS011;7431;49.440;11.084;2023-07-30T10:21:08;1.40;;;1.30;;
14686;SDS011;7431;49.440;11.084;2023-07-30T10:23:34;1.40;;;1.30;;
14686;SDS011;7431;49.440;11.084;2023-07-30T10:26:08;1.85;;;1.45;;
14686;SDS011;7431;49.440;11.084;2023-07-30T10:28:35;1.23;;;1.13;;
14686;SDS011;7431;49.440;11.084;2023-07-30T10:31:07;1.88;;;1.50;;
14686;SDS011;7431;49.440;11.084;2023-07-30T10:33:52;1.67;;;1.55;;
14686;SDS011;7431;49.440;11.084;2023-07-30T10:37:04;1.23;;;1.13;;
14686;SDS011;7431;49.440;11.084;2023-07-30T10:39:18;4.20;;;1.40;;
14686;SDS011;7431;49.440;11.084;2023-07-30T10:41:45;1.48;;;1.38;;
14686;SDS011;7431;49.440;11.084;2023-07-30T10:44:27;1.77;;;1.20;;
14686;SDS011;7431;49.440;11.084;2023-07-30T10:46:55;2.03;;;1.40;;
14686;SDS011;7431;49.440;11.084;2023-07-30T10:49:21;2.05;;;1.27;;
14686;SDS011;7431;49.440;11.084;2023-07-30T10:51:47;1.52;;;1.42;;
14686;SDS011;7431;49.440;11.084;2023-07-30T10:54:13;1.30;;;1.17;;
14686;SDS011;7431;49.440;11.084;2023-07-30T10:56:41;2.38;;;1.50;;
14686;SDS011;7431;49.440;11.084;2023-07-30T10:59:07;1.23;;;1.13;;
14686;SDS011;7431;49.440;11.084;2023-07-30T11:01:40;1.45;;;1.20;;
14686;SDS011;7431;49.440;11.084;2023-07-30T11:04:08;1.30;;;1.20;;
14686;SDS011;7431;49.440;11.084;2023-07-30T11:06:34;1.13;;;0.98;;
14686;SDS011;7431;49.440;11.084;2023-07-30T11:09:00;1.27;;;1.17;;
14686;SDS011;7431;49.440;11.084;2023-07-30T11:11:26;1.40;;;1.30;;
14686;SDS011;7431;49.440;11.084;2023-07-30T11:13:52;1.30;;;1.20;;
14686;SDS011;7431;49.440;11.084;2023-07-30T11:16:18;1.40;;;1.30;;
14686;SDS011;7431;49.440;11.084;2023-07-30T11:18:44;1.50;;;1.10;;
14686;SDS011;7431;49.440;11.084;2023-07-30T11:21:14;1.13;;;1.05;;
14686;SDS011;7431;49.440;11.084;2023-07-30T11:23:41;2.33;;;1.10;;
14686;SDS011;7431;49.440;11.084;2023-07-30T11:26:08;2.08;;;1.55;;
14686;SDS011;7431;49.440;11.084;2023-07-30T11:28:35;2.17;;;1.50;;
14686;SDS011;7431;49.440;11.084;2023-07-30T11:31:11;1.50;;;1.30;;
14686;SDS011;7431;49.440;11.084;2023-07-30T11:33:41;1.67;;;1.58;;
14686;SDS011;7431;49.440;11.084;2023-07-30T11:36:09;1.55;;;1.45;;
14686;SDS011;7431;49.440;11.084;2023-07-30T11:38:36;1.63;;;1.40;;
14686;SDS011;7431;49.440;11.084;2023-07-30T11:41:02;2.35;;;1.50;;
14686;SDS011;7431;49.440;11.084;2023-07-30T11:43:30;1.58;;;1.48;;
14686;SDS011;7431;49.440;11.084;2023-07-30T11:48:52;1.52;;;1.42;;
14686;SDS011;7431;49.440;11.084;2023-07-30T11:51:19;1.50;;;1.40;;
14686;SDS011;7431;49.440;11.084;2023-07-30T11:53:47;1.50;;;1.40;;
14686;SDS011;7431;49.440;11.084;2023-07-30T11:56:15;1.48;;;1.38;;
14686;SDS011;7431;49.440;11.084;2023-07-30T11:58:41;1.70;;;1.50;;
14686;SDS011;7431;49.440;11.084;2023-07-30T12:01:07;1.60;;;1.50;;
14686;SDS011;7431;49.440;11.084;2023-07-30T12:03:33;1.58;;;1.45;;
14686;SDS011;7431;49.440;11.084;2023-07-30T12:05:59;1.20;;;1.10;;
14686;SDS011;7431;49.440;11.084;2023-07-30T12:08:29;1.80;;;1.55;;
14686;SDS011;7431;49.440;11.084;2023-07-30T12:10:55;1.83;;;1.58;;
14686;SDS011;7431;49.440;11.084;2023-07-30T12:13:22;1.90;;;1.40;;
14686;SDS011;7431;49.440;11.084;2023-07-30T12:15:54;1.92;;;1.65;;
14686;SDS011;7431;49.440;11.084;2023-07-30T12:18:20;2.17;;;1.40;;
14686;SDS011;7431;49.440;11.084;2023-07-30T12:20:47;3.80;;;2.33;;
14686;SDS011;7431;49.440;11.084;2023-07-30T12:23:15;2.42;;;2.03;;
14686;SDS011;7431;49.440;11.084;2023-07-30T12:25:41;1.83;;;1.60;;
14686;SDS011;7431;49.440;11.084;2023-07-30T12:28:07;1.83;;;1.70;;
14686;SDS011;7431;49.440;11.084;2023-07-30T12:30:33;1.67;;;1.50;;
14686;SDS011;7431;49.440;11.084;2023-07-30T12:33:00;2.38;;;1.70;;
14686;SDS011;7431;49.440;11.084;2023-07-30T12:35:26;1.48;;;1.35;;
14686;SDS011;7431;49.440;11.084;2023-07-30T12:37:52;1.73;;;1.52;;
14686;SDS011;7431;49.440;11.084;2023-07-30T12:40:18;1.70;;;1.50;;
14686;SDS011;7431;49.440;11.084;2023-07-30T12:42:44;1.45;;;1.35;;
14686;SDS011;7431;49.440;11.084;2023-07-30T12:45:10;1.90;;;1.63;;
14686;SDS011;7431;49.440;11.084;2023-07-30T12:47:36;1.70;;;1.60;;
14686;SDS011;7431;49.440;11.084;2023-07-30T12:50:02;1.83;;;1.60;;
14686;SDS011;7431;49.440;11.084;2023-07-30T12:52:29;2.92;;;2.00;;
14686;SDS011;7431;49.440;11.084;2023-07-30T12:54:55;2.17;;;1.98;;
14686;SDS011;7431;49.440;11.084;2023-07-30T12:57:21;3.00;;;2.70;;
14686;SDS011;7431;49.440;11.084;2023-07-30T12:59:47;1.83;;;1.67;;
14686;SDS011;7431;49.440;11.084;2023-07-30T13:02:13;2.60;;;2.40;;
14686;SDS011;7431;49.440;11.084;2023-07-30T13:04:39;2.83;;;2.10;;
14686;SDS011;7431;49.440;11.084;2023-07-30T13:07:05;6.68;;;5.97;;
14686;SDS011;7431;49.440;11.084;2023-07-30T13:09:31;5.30;;;3.78;;
14686;SDS011;7431;49.440;11.084;2023-07-30T13:11:57;3.83;;;3.50;;
14686;SDS011;7431;49.440;11.084;2023-07-30T13:14:23;2.95;;;2.65;;
14686;SDS011;7431;49.440;11.084;2023-07-30T13:16:49;2.47;;;2.28;;
14686;SDS011;7431;49.440;11.084;2023-07-30T13:19:15;2.10;;;1.90;;
14686;SDS011;7431;49.440;11.084;2023-07-30T13:21:41;2.60;;;2.35;;
14686;SDS011;7431;49.440;11.084;2023-07-30T13:24:07;2.25;;;1.92;;
14686;SDS011;7431;49.440;11.084;2023-07-30T13:26:34;2.08;;;1.50;;
14686;SDS011;7431;49.440;11.084;2023-07-30T13:29:00;2.25;;;1.80;;
14686;SDS011;7431;49.440;11.084;2023-07-30T13:31:26;1.73;;;1.60;;
14686;SDS011;7431;49.440;11.084;2023-07-30T13:33:52;5.05;;;2.03;;
14686;SDS011;7431;49.440;11.084;2023-07-30T13:36:18;2.33;;;2.13;;
14686;SDS011;7431;49.440;11.084;2023-07-30T13:38:44;4.55;;;3.40;;
14686;SDS011;7431;49.440;11.084;2023-07-30T13:41:10;5.07;;;3.85;;
14686;SDS011;7431;49.440;11.084;2023-07-30T13:43:36;4.03;;;3.42;;
14686;SDS011;7431;49.440;11.084;2023-07-30T13:46:02;3.85;;;3.10;;
14686;SDS011;7431;49.440;11.084;2023-07-30T13:48:28;4.13;;;3.08;;
14686;SDS011;7431;49.440;11.084;2023-07-30T13:50:54;3.10;;;1.88;;
14686;SDS011;7431;49.440;11.084;2023-07-30T13:53:20;2.65;;;2.05;;
14686;SDS011;7431;49.440;11.084;2023-07-30T13:55:46;5.25;;;3.95;;
14686;SDS011;7431;49.440;11.084;2023-07-30T13:58:12;2.83;;;2.53;;
14686;SDS011;7431;49.440;11.084;2023-07-30T14:00:39;9.55;;;6.90;;
14686;SDS011;7431;49.440;11.084;2023-07-30T14:03:05;4.53;;;2.72;;
14686;SDS011;7431;49.440;11.084;2023-07-30T14:05:31;6.20;;;3.70;;
14686;SDS011;7431;49.440;11.084;2023-07-30T14:07:57;2.65;;;1.98;;
14686;SDS011;7431;49.440;11.084;2023-07-30T14:10:23;1.65;;;1.52;;
14686;SDS011;7431;49.440;11.084;2023-07-30T14:12:49;2.15;;;1.80;;
14686;SDS011;7431;49.440;11.084;2023-07-30T14:15:15;2.65;;;2.22;;
14686;SDS011;7431;49.440;11.084;2023-07-30T14:17:41;2.83;;;2.03;;
14686;SDS011;7431;49.440;11.084;2023-07-30T14:20:07;2.30;;;2.10;;
14686;SDS011;7431;49.440;11.084;2023-07-30T14:22:34;2.13;;;1.67;;
14686;SDS011;7431;49.440;11.084;2023-07-30T14:25:00;1.95;;;1.48;;
14686;SDS011;7431;49.440;11.084;2023-07-30T14:27:26;1.80;;;1.55;;
14686;SDS011;7431;49.440;11.084;2023-07-30T14:29:52;1.95;;;1.75;;
14686;SDS011;7431;49.440;11.084;2023-07-30T14:32:22;1.58;;;1.42;;
14686;SDS011;7431;49.440;11.084;2023-07-30T14:34:48;1.17;;;1.08;;
14686;SDS011;7431;49.440;11.084;2023-07-30T14:37:14;2.90;;;1.35;;
14686;SDS011;7431;49.440;11.084;2023-07-30T14:39:40;2.00;;;1.65;;
14686;SDS011;7431;49.440;11.084;2023-07-30T14:42:07;1.40;;;1.30;;
14686;SDS011;7431;49.440;11.084;2023-07-30T14:44:33;2.17;;;1.30;;
14686;SDS011;7431;49.440;11.084;2023-07-30T14:46:59;5.13;;;1.50;;